createdAt,value
2019-02-05T00:01:09.710Z,0
2019-02-05T00:02:19.663Z,0
2019-02-05T00:03:29.602Z,0
2019-02-05T00:04:39.696Z,0
2019-02-05T00:05:49.637Z,0
2019-02-05T00:06:59.593Z,0
2019-02-05T00:08:09.538Z,0
2019-02-05T00:09:19.470Z,0
2019-02-05T00:10:29.526Z,0
2019-02-05T00:11:39.467Z,0
2019-02-05T00:12:49.412Z,0
2019-02-05T00:13:59.347Z,0
2019-02-05T00:15:09.285Z,0
2019-02-05T00:16:19.364Z,0
2019-02-05T00:17:29.302Z,0
2019-02-05T00:18:39.243Z,0
2019-02-05T00:19:48.942Z,0
2019-02-05T00:20:58.881Z,0
2019-02-05T00:22:08.916Z,0
2019-02-05T00:23:18.885Z,0
2019-02-05T00:24:28.578Z,0
2019-02-05T00:25:38.948Z,0
2019-02-05T00:26:49.621Z,0
2019-02-05T00:28:00.707Z,0
2019-02-05T00:29:11.445Z,0
2019-02-05T00:30:22.128Z,0
2019-02-05T00:31:32.775Z,0
2019-02-05T00:32:43.307Z,0
2019-02-05T00:33:53.592Z,0
2019-02-05T00:35:03.875Z,0
2019-02-05T00:36:13.817Z,0
2019-02-05T00:37:23.756Z,0
2019-02-05T00:38:33.689Z,0
2019-02-05T00:39:43.510Z,0
2019-02-05T00:40:53.437Z,0
2019-02-05T00:42:03.387Z,0
2019-02-05T00:43:13.334Z,0
2019-02-05T00:44:23.275Z,0
2019-02-05T00:45:33.305Z,0
2019-02-05T00:46:43.245Z,0
2019-02-05T00:47:53.188Z,0
2019-02-05T00:49:03.136Z,0
2019-02-05T00:50:13.093Z,0
2019-02-05T00:51:23.159Z,0
2019-02-05T00:52:33.098Z,0
2019-02-05T00:53:43.037Z,0
2019-02-05T00:54:52.985Z,0
2019-02-05T00:56:02.925Z,0
2019-02-05T00:57:12.969Z,0
2019-02-05T00:58:22.906Z,0
2019-02-05T00:59:32.842Z,0
2019-02-05T01:00:42.790Z,0
2019-02-05T01:01:52.738Z,0
2019-02-05T01:03:02.743Z,0
2019-02-05T01:04:12.689Z,0
2019-02-05T01:05:22.647Z,0
2019-02-05T01:06:32.587Z,0
2019-02-05T01:07:42.543Z,0
2019-02-05T01:08:52.534Z,0
2019-02-05T01:10:02.708Z,0
2019-02-05T01:11:12.656Z,0
2019-02-05T01:12:22.616Z,0
2019-02-05T01:13:32.626Z,0
2019-02-05T01:14:42.663Z,0
2019-02-05T01:15:52.620Z,0
2019-02-05T01:17:02.562Z,0
2019-02-05T01:18:12.517Z,0
2019-02-05T01:19:22.455Z,0
2019-02-05T01:20:32.399Z,0
2019-02-05T01:21:42.344Z,0
2019-02-05T01:22:52.495Z,0
2019-02-05T01:24:02.186Z,0
2019-02-05T01:25:12.141Z,0
2019-02-05T01:26:34.159Z,0
2019-02-05T01:27:45.081Z,0
2019-02-05T01:28:55.692Z,0
2019-02-05T01:30:06.203Z,0
2019-02-05T01:31:16.437Z,0
2019-02-05T01:32:26.453Z,0
2019-02-05T01:33:36.407Z,0
2019-02-05T01:34:46.351Z,0
2019-02-05T01:35:56.335Z,0
2019-02-05T01:37:06.495Z,0
2019-02-05T01:38:16.443Z,0
2019-02-05T01:39:26.390Z,0
2019-02-05T01:40:36.390Z,0
2019-02-05T01:41:46.335Z,0
2019-02-05T01:42:56.357Z,0
2019-02-05T01:44:06.300Z,0
2019-02-05T01:45:16.247Z,0
2019-02-05T01:46:26.195Z,0
2019-02-05T01:47:36.221Z,0
2019-02-05T01:48:46.153Z,0
2019-02-05T01:49:56.079Z,0
2019-02-05T01:51:06.019Z,0
2019-02-05T01:52:15.958Z,0
2019-02-05T01:53:25.952Z,0
2019-02-05T01:54:35.992Z,0
2019-02-05T01:55:46.040Z,0
2019-02-05T01:56:55.981Z,0
2019-02-05T01:58:05.918Z,0
2019-02-05T01:59:15.871Z,0
2019-02-05T02:00:25.838Z,0
2019-02-05T02:01:35.810Z,0
2019-02-05T02:02:45.758Z,0
2019-02-05T02:03:55.700Z,0
2019-02-05T02:05:05.637Z,0
2019-02-05T02:06:15.619Z,0
2019-02-05T02:07:25.572Z,0
2019-02-05T02:08:35.505Z,0
2019-02-05T02:09:45.432Z,0
2019-02-05T02:10:55.567Z,0
2019-02-05T02:12:05.629Z,0
2019-02-05T02:13:15.565Z,0
2019-02-05T02:14:25.566Z,0
2019-02-05T02:15:35.501Z,0
2019-02-05T02:16:45.444Z,0
2019-02-05T02:17:55.437Z,0
2019-02-05T02:19:05.396Z,0
2019-02-05T02:20:15.339Z,0
2019-02-05T02:21:25.283Z,0
2019-02-05T02:22:35.387Z,0
2019-02-05T02:23:45.373Z,0
2019-02-05T02:24:55.303Z,0
2019-02-05T02:26:05.264Z,0
2019-02-05T02:27:15.203Z,0
2019-02-05T02:28:25.159Z,0
2019-02-05T02:29:35.215Z,0
2019-02-05T02:30:45.203Z,0
2019-02-05T02:31:55.421Z,0
2019-02-05T02:33:06.010Z,0
2019-02-05T02:34:16.601Z,0
2019-02-05T02:35:27.504Z,0
2019-02-05T02:36:38.126Z,0
2019-02-05T02:37:48.872Z,0
2019-02-05T02:38:59.424Z,0
2019-02-05T02:40:10.112Z,0
2019-02-05T02:41:20.252Z,0
2019-02-05T02:42:30.447Z,0
2019-02-05T02:43:40.399Z,0
2019-02-05T02:44:50.354Z,0
2019-02-05T02:46:00.297Z,0
2019-02-05T02:47:10.368Z,0
2019-02-05T02:48:20.311Z,0
2019-02-05T02:49:30.270Z,0
2019-02-05T02:50:40.234Z,0
2019-02-05T02:51:50.179Z,0
2019-02-05T02:53:00.250Z,0
2019-02-05T02:54:10.245Z,0
2019-02-05T02:55:20.251Z,0
2019-02-05T02:56:30.226Z,0
2019-02-05T02:57:40.190Z,0
2019-02-05T02:58:50.162Z,0
2019-02-05T03:00:00.513Z,0
2019-02-05T03:01:10.552Z,0
2019-02-05T03:02:20.517Z,0
2019-02-05T03:03:30.541Z,0
2019-02-05T03:04:40.531Z,0
2019-02-05T03:05:51.563Z,0
2019-02-05T03:07:01.551Z,0
2019-02-05T03:08:11.550Z,0
2019-02-05T03:09:21.512Z,0
2019-02-05T03:10:31.631Z,0
2019-02-05T03:11:41.645Z,0
2019-02-05T03:12:51.644Z,0
2019-02-05T03:14:01.628Z,0
2019-02-05T03:15:11.604Z,0
2019-02-05T03:16:21.588Z,0
2019-02-05T03:17:31.560Z,0
2019-02-05T03:18:41.551Z,0
2019-02-05T03:19:51.553Z,0
2019-02-05T03:21:01.559Z,0
2019-02-05T03:22:11.684Z,0
2019-02-05T03:23:21.661Z,0
2019-02-05T03:24:31.666Z,0
2019-02-05T03:25:41.645Z,0
2019-02-05T03:26:51.639Z,0
2019-02-05T03:28:03.778Z,0
2019-02-05T03:29:13.755Z,0
2019-02-05T03:30:23.808Z,0
2019-02-05T03:31:33.817Z,0
2019-02-05T03:32:43.842Z,0
2019-02-05T03:33:53.976Z,0
2019-02-05T03:35:03.953Z,0
2019-02-05T03:36:13.923Z,0
2019-02-05T03:37:23.895Z,0
2019-02-05T03:38:33.952Z,0
2019-02-05T03:39:44.007Z,0
2019-02-05T03:40:53.962Z,0
2019-02-05T03:42:03.945Z,0
2019-02-05T03:43:13.924Z,0
2019-02-05T03:44:23.888Z,0
2019-02-05T03:45:33.755Z,0
2019-02-05T03:46:43.815Z,0
2019-02-05T03:47:53.784Z,0
2019-02-05T03:49:03.599Z,0
2019-02-05T03:50:13.322Z,0
2019-02-05T03:51:23.428Z,0
2019-02-05T03:52:33.393Z,0
2019-02-05T03:53:43.377Z,0
2019-02-05T03:54:53.340Z,0
2019-02-05T03:56:03.317Z,0
2019-02-05T03:57:13.389Z,0
2019-02-05T03:58:23.405Z,0
2019-02-05T03:59:33.485Z,0
2019-02-05T04:00:43.211Z,0
2019-02-05T04:01:53.292Z,0
2019-02-05T04:03:03.302Z,0
2019-02-05T04:04:13.266Z,0
2019-02-05T04:05:23.341Z,0
2019-02-05T04:06:33.313Z,0
2019-02-05T04:07:43.286Z,0
2019-02-05T04:08:53.273Z,0
2019-02-05T04:10:03.242Z,0
2019-02-05T04:11:13.268Z,0
2019-02-05T04:12:23.368Z,0
2019-02-05T04:13:33.689Z,0
2019-02-05T04:14:44.381Z,0
2019-02-05T04:15:55.249Z,0
2019-02-05T04:17:06.258Z,0
2019-02-05T04:18:16.743Z,0
2019-02-05T04:19:27.381Z,0
2019-02-05T04:20:37.909Z,0
2019-02-05T04:21:48.176Z,0
2019-02-05T04:22:58.372Z,0
2019-02-05T04:24:08.104Z,0
2019-02-05T04:25:18.081Z,0
2019-02-05T04:26:27.897Z,0
2019-02-05T04:27:52.474Z,0
2019-02-05T04:29:02.448Z,0
2019-02-05T04:30:12.427Z,0
2019-02-05T04:31:22.154Z,0
2019-02-05T04:32:32.128Z,0
2019-02-05T04:33:42.085Z,0
2019-02-05T04:34:52.043Z,0
2019-02-05T04:36:02.010Z,0
2019-02-05T04:37:12.100Z,0
2019-02-05T04:38:22.062Z,0
2019-02-05T04:39:32.052Z,0
2019-02-05T04:40:42.021Z,0
2019-02-05T04:41:51.985Z,0
2019-02-05T04:43:02.071Z,0
2019-02-05T04:44:12.049Z,0
2019-02-05T04:45:33.346Z,0
2019-02-05T04:46:43.631Z,0
2019-02-05T04:47:53.744Z,0
2019-02-05T04:49:03.709Z,0
2019-02-05T04:50:13.685Z,0
2019-02-05T04:51:23.681Z,0
2019-02-05T04:52:33.405Z,0
2019-02-05T04:53:43.419Z,0
2019-02-05T04:54:53.398Z,0
2019-02-05T04:56:03.376Z,0
2019-02-05T04:57:13.354Z,0
2019-02-05T04:58:23.444Z,0
2019-02-05T04:59:34.155Z,0
2019-02-05T05:00:44.863Z,0
2019-02-05T05:01:55.581Z,0
2019-02-05T05:03:06.317Z,0
2019-02-05T05:04:17.182Z,0
2019-02-05T05:05:27.518Z,0
2019-02-05T05:06:37.977Z,0
2019-02-05T05:07:48.245Z,0
2019-02-05T05:08:58.371Z,0
2019-02-05T05:10:08.346Z,0
2019-02-05T05:11:18.351Z,0
2019-02-05T05:12:28.325Z,0
2019-02-05T05:13:38.330Z,0
2019-02-05T05:14:48.334Z,0
2019-02-05T05:15:58.299Z,0
2019-02-05T05:17:08.368Z,0
2019-02-05T05:18:20.412Z,0
2019-02-05T05:19:30.387Z,0
2019-02-05T05:20:40.358Z,0
2019-02-05T05:21:50.341Z,0
2019-02-05T05:23:00.335Z,0
2019-02-05T05:24:10.403Z,0
2019-02-05T05:25:20.386Z,0
2019-02-05T05:26:30.364Z,0
2019-02-05T05:27:40.352Z,0
2019-02-05T05:28:50.136Z,0
2019-02-05T05:30:00.341Z,0
2019-02-05T05:31:10.371Z,0
2019-02-05T05:32:20.338Z,0
2019-02-05T05:33:30.330Z,0
2019-02-05T05:34:40.351Z,0
2019-02-05T05:35:54.105Z,0
2019-02-05T05:37:04.114Z,0
2019-02-05T05:38:14.088Z,0
2019-02-05T05:39:24.052Z,0
2019-02-05T05:40:34.217Z,0
2019-02-05T05:41:44.362Z,0
2019-02-05T05:42:54.320Z,0
2019-02-05T05:44:04.277Z,0
2019-02-05T05:45:14.288Z,0
2019-02-05T05:46:24.100Z,0
2019-02-05T05:47:34.084Z,0
2019-02-05T05:48:44.058Z,0
2019-02-05T05:49:54.023Z,0
2019-02-05T05:51:04.005Z,0
2019-02-05T05:52:14.038Z,0
2019-02-05T05:53:24.005Z,0
2019-02-05T05:54:33.992Z,0
2019-02-05T05:55:43.990Z,0
2019-02-05T05:56:54.072Z,0
2019-02-05T05:58:03.918Z,0
2019-02-05T05:59:13.884Z,0
2019-02-05T06:00:23.861Z,0
2019-02-05T06:01:33.825Z,0
2019-02-05T06:02:47.103Z,0
2019-02-05T06:03:57.311Z,0
2019-02-05T06:05:07.468Z,0
2019-02-05T06:06:17.527Z,0
2019-02-05T06:07:27.604Z,0
2019-02-05T06:08:37.717Z,0
2019-02-05T06:09:47.832Z,0
2019-02-05T06:10:57.547Z,0
2019-02-05T06:12:07.561Z,0
2019-02-05T06:13:17.537Z,0
2019-02-05T06:14:27.560Z,0
2019-02-05T06:15:40.749Z,0
2019-02-05T06:16:50.720Z,0
2019-02-05T06:18:00.846Z,0
2019-02-05T06:19:10.800Z,0
2019-02-05T06:20:20.788Z,0
2019-02-05T06:21:31.142Z,0
2019-02-05T06:22:41.624Z,0
2019-02-05T06:23:52.259Z,0
2019-02-05T06:25:03.061Z,0
2019-02-05T06:26:13.846Z,0
2019-02-05T06:27:24.940Z,0
2019-02-05T06:28:44.225Z,0
2019-02-05T06:29:54.199Z,0
2019-02-05T06:31:04.170Z,0
2019-02-05T06:32:14.136Z,0
2019-02-05T06:33:26.056Z,0
2019-02-05T06:34:36.046Z,0
2019-02-05T06:35:46.018Z,0
2019-02-05T06:36:56.015Z,0
2019-02-05T06:38:05.994Z,0
2019-02-05T06:39:16.075Z,0
2019-02-05T06:40:26.060Z,0
2019-02-05T06:41:36.034Z,0
2019-02-05T06:42:46.082Z,0
2019-02-05T06:43:56.068Z,0
2019-02-05T06:45:06.045Z,0
2019-02-05T06:46:16.012Z,0
2019-02-05T06:47:25.995Z,0
2019-02-05T06:48:35.962Z,0
2019-02-05T06:49:45.935Z,0
2019-02-05T06:50:56.868Z,0
2019-02-05T06:52:06.956Z,0
2019-02-05T06:53:16.943Z,0
2019-02-05T06:54:26.919Z,0
2019-02-05T06:55:37.030Z,0
2019-02-05T06:56:49.683Z,0
2019-02-05T06:57:59.677Z,0
2019-02-05T06:59:09.635Z,0
2019-02-05T07:00:19.623Z,0
2019-02-05T07:01:29.591Z,0
2019-02-05T07:02:39.709Z,0
2019-02-05T07:03:49.679Z,0
2019-02-05T07:04:59.652Z,0
2019-02-05T07:06:09.621Z,0
2019-02-05T07:07:19.594Z,0
2019-02-05T07:08:29.610Z,0
2019-02-05T07:09:39.632Z,0
2019-02-05T07:10:49.641Z,0
2019-02-05T07:11:59.628Z,0
2019-02-05T07:13:09.594Z,0
2019-02-05T07:14:19.618Z,0
2019-02-05T07:15:29.578Z,0
2019-02-05T07:16:39.545Z,5
2019-02-05T07:17:59.295Z,5
2019-02-05T07:19:09.244Z,5
2019-02-05T07:20:19.252Z,5
2019-02-05T07:21:29.215Z,5
2019-02-05T07:22:39.235Z,5
2019-02-05T07:23:49.192Z,5
2019-02-05T07:24:59.155Z,5
2019-02-05T07:26:09.229Z,5
2019-02-05T07:27:19.320Z,5
2019-02-05T07:28:29.721Z,10
2019-02-05T07:29:40.416Z,10
2019-02-05T07:30:50.996Z,10
2019-02-05T07:32:01.886Z,10
2019-02-05T07:33:12.831Z,10
2019-02-05T07:34:26.290Z,10
2019-02-05T07:35:37.233Z,15
2019-02-05T07:36:47.723Z,15
2019-02-05T07:37:58.305Z,15
2019-02-05T07:39:08.877Z,15
2019-02-05T07:40:19.469Z,20
2019-02-05T07:41:29.931Z,20
2019-02-05T07:42:40.394Z,20
2019-02-05T07:43:51.016Z,25
2019-02-05T07:45:01.281Z,25
2019-02-05T07:46:11.523Z,30
2019-02-05T07:47:23.437Z,35
2019-02-05T07:48:35.469Z,35
2019-02-05T07:49:45.587Z,40
2019-02-05T07:50:55.588Z,40
2019-02-05T07:52:05.586Z,45
2019-02-05T07:53:15.594Z,45
2019-02-05T07:54:25.584Z,50
2019-02-05T07:55:35.637Z,50
2019-02-05T07:56:45.654Z,50
2019-02-05T07:57:55.685Z,50
2019-02-05T07:59:17.356Z,50
2019-02-05T08:00:27.402Z,55
2019-02-05T08:01:37.413Z,55
2019-02-05T08:02:47.456Z,55
2019-02-05T08:03:57.459Z,55
2019-02-05T08:05:10.529Z,60
2019-02-05T08:06:20.565Z,60
2019-02-05T08:07:30.553Z,60
2019-02-05T08:08:40.319Z,60
2019-02-05T08:09:50.306Z,60
2019-02-05T08:11:00.312Z,60
2019-02-05T08:12:10.447Z,65
2019-02-05T08:13:20.528Z,65
2019-02-05T08:14:30.549Z,65
2019-02-05T08:15:40.577Z,65
2019-02-05T08:16:52.724Z,65
2019-02-05T08:18:02.759Z,70
2019-02-05T08:19:12.764Z,70
2019-02-05T08:20:22.758Z,70
2019-02-05T08:21:32.762Z,70
2019-02-05T08:22:42.781Z,70
2019-02-05T08:23:52.838Z,70
2019-02-05T08:25:02.849Z,70
2019-02-05T08:26:12.846Z,75
2019-02-05T08:27:22.888Z,75
2019-02-05T08:28:43.407Z,75
2019-02-05T08:29:53.578Z,80
2019-02-05T08:31:03.557Z,80
2019-02-05T08:32:13.588Z,80
2019-02-05T08:33:23.676Z,80
2019-02-05T08:34:33.750Z,80
2019-02-05T08:35:43.845Z,80
2019-02-05T08:36:53.854Z,80
2019-02-05T08:38:03.960Z,80
2019-02-05T08:39:13.946Z,80
2019-02-05T08:40:23.927Z,80
2019-02-05T08:41:34.051Z,80
2019-02-05T08:42:44.039Z,85
2019-02-05T08:43:54.016Z,85
2019-02-05T08:45:04.040Z,90
2019-02-05T08:46:14.048Z,90
2019-02-05T08:47:24.139Z,95
2019-02-05T08:48:34.148Z,95
2019-02-05T08:49:44.177Z,100
2019-02-05T08:50:54.310Z,105
2019-02-05T08:52:04.310Z,105
2019-02-05T08:53:14.106Z,110
2019-02-05T08:54:24.112Z,115
2019-02-05T08:55:35.825Z,120
2019-02-05T08:56:45.827Z,120
2019-02-05T08:57:55.821Z,120
2019-02-05T08:59:06.146Z,120
2019-02-05T09:00:16.679Z,125
2019-02-05T09:01:27.291Z,130
2019-02-05T09:02:37.935Z,130
2019-02-05T09:03:48.628Z,135
2019-02-05T09:04:59.691Z,140
2019-02-05T09:06:10.766Z,140
2019-02-05T09:07:21.470Z,140
2019-02-05T09:08:32.281Z,145
2019-02-05T09:09:42.710Z,145
2019-02-05T09:10:53.350Z,145
2019-02-05T09:12:03.572Z,145
2019-02-05T09:13:13.868Z,150
2019-02-05T09:14:24.091Z,150
2019-02-05T09:15:39.344Z,150
2019-02-05T09:16:49.430Z,150
2019-02-05T09:17:59.437Z,150
2019-02-05T09:19:09.411Z,150
2019-02-05T09:20:19.416Z,150
2019-02-05T09:21:29.415Z,155
2019-02-05T09:22:39.488Z,155
2019-02-05T09:23:49.478Z,155
2019-02-05T09:24:59.461Z,155
2019-02-05T09:26:09.630Z,155
2019-02-05T09:27:19.657Z,160
2019-02-05T09:28:29.712Z,160
2019-02-05T09:29:43.275Z,160
2019-02-05T09:30:53.318Z,165
2019-02-05T09:32:03.350Z,165
2019-02-05T09:33:13.324Z,170
2019-02-05T09:34:23.449Z,170
2019-02-05T09:35:33.457Z,170
2019-02-05T09:36:43.444Z,170
2019-02-05T09:37:53.444Z,175
2019-02-05T09:39:03.443Z,170
2019-02-05T09:40:13.484Z,170
2019-02-05T09:41:23.478Z,170
2019-02-05T09:42:33.508Z,170
2019-02-05T09:43:43.532Z,170
2019-02-05T09:44:53.560Z,175
2019-02-05T09:46:03.696Z,175
2019-02-05T09:47:13.695Z,175
2019-02-05T09:48:23.679Z,175
2019-02-05T09:49:33.771Z,180
2019-02-05T09:50:54.147Z,180
2019-02-05T09:52:04.303Z,180
2019-02-05T09:53:14.318Z,180
2019-02-05T09:54:24.306Z,180
2019-02-05T09:55:36.066Z,180
2019-02-05T09:56:46.238Z,175
2019-02-05T09:57:56.331Z,175
2019-02-05T09:59:06.362Z,170
2019-02-05T10:00:16.384Z,170
2019-02-05T10:01:26.362Z,165
2019-02-05T10:02:36.358Z,165
2019-02-05T10:03:46.464Z,165
2019-02-05T10:04:56.456Z,165
2019-02-05T10:06:06.452Z,160
2019-02-05T10:07:16.441Z,160
2019-02-05T10:08:26.458Z,160
2019-02-05T10:09:36.659Z,160
2019-02-05T10:10:46.723Z,160
2019-02-05T10:11:56.714Z,155
2019-02-05T10:13:06.854Z,155
2019-02-05T10:14:16.987Z,155
2019-02-05T10:15:27.051Z,155
2019-02-05T10:16:37.067Z,155
2019-02-05T10:17:46.815Z,155
2019-02-05T10:18:56.839Z,155
2019-02-05T10:20:06.835Z,160
2019-02-05T10:21:17.168Z,160
2019-02-05T10:22:27.478Z,160
2019-02-05T10:23:38.227Z,165
2019-02-05T10:24:49.900Z,165
2019-02-05T10:26:00.789Z,170
2019-02-05T10:27:11.746Z,170
2019-02-05T10:28:22.508Z,170
2019-02-05T10:29:33.500Z,175
2019-02-05T10:30:44.277Z,175
2019-02-05T10:31:54.552Z,175
2019-02-05T10:33:04.940Z,175
2019-02-05T10:34:14.939Z,180
2019-02-05T10:35:24.951Z,180
2019-02-05T10:36:34.952Z,185
2019-02-05T10:37:44.938Z,185
2019-02-05T10:38:55.004Z,190
2019-02-05T10:40:05.179Z,190
2019-02-05T10:41:15.186Z,190
2019-02-05T10:42:25.165Z,190
2019-02-05T10:43:35.261Z,190
2019-02-05T10:44:45.349Z,190
2019-02-05T10:45:55.335Z,190
2019-02-05T10:47:05.317Z,190
2019-02-05T10:48:15.472Z,185
2019-02-05T10:49:25.401Z,185
2019-02-05T10:50:35.522Z,180
2019-02-05T10:51:45.537Z,180
2019-02-05T10:52:55.654Z,180
2019-02-05T10:54:05.651Z,180
2019-02-05T10:55:15.657Z,180
2019-02-05T10:56:25.791Z,180
2019-02-05T10:57:35.790Z,180
2019-02-05T10:58:45.786Z,185
2019-02-05T11:00:07.255Z,185
2019-02-05T11:01:18.539Z,185
2019-02-05T11:02:28.585Z,185
2019-02-05T11:03:38.601Z,185
2019-02-05T11:04:48.588Z,190
2019-02-05T11:05:58.628Z,190
2019-02-05T11:07:08.731Z,190
2019-02-05T11:08:18.759Z,195
2019-02-05T11:09:28.759Z,195
2019-02-05T11:10:38.776Z,200
2019-02-05T11:11:48.788Z,200
2019-02-05T11:12:58.840Z,205
2019-02-05T11:14:08.811Z,205
2019-02-05T11:15:18.786Z,205
2019-02-05T11:16:28.788Z,205
2019-02-05T11:17:38.809Z,210
2019-02-05T11:18:48.806Z,210
2019-02-05T11:19:58.806Z,210
2019-02-05T11:21:11.483Z,210
2019-02-05T11:22:21.240Z,210
2019-02-05T11:23:31.257Z,215
2019-02-05T11:24:41.248Z,210
2019-02-05T11:25:51.386Z,210
2019-02-05T11:27:01.413Z,210
2019-02-05T11:28:11.261Z,205
2019-02-05T11:29:21.262Z,200
2019-02-05T11:30:31.085Z,205
2019-02-05T11:31:41.076Z,205
2019-02-05T11:32:52.831Z,200
2019-02-05T11:34:03.068Z,205
2019-02-05T11:35:13.048Z,210
2019-02-05T11:36:23.164Z,210
2019-02-05T11:37:33.206Z,210
2019-02-05T11:38:43.205Z,210
2019-02-05T11:39:53.179Z,205
2019-02-05T11:41:03.162Z,200
2019-02-05T11:42:13.268Z,205
2019-02-05T11:43:23.285Z,205
2019-02-05T11:44:33.025Z,205
2019-02-05T11:45:43.031Z,200
2019-02-05T11:46:53.048Z,200
2019-02-05T11:48:03.637Z,200
2019-02-05T11:49:14.230Z,195
2019-02-05T11:50:25.000Z,200
2019-02-05T11:51:35.755Z,195
2019-02-05T11:52:46.535Z,195
2019-02-05T11:53:57.086Z,190
2019-02-05T11:55:08.123Z,190
2019-02-05T11:56:18.846Z,190
2019-02-05T11:57:30.227Z,190
2019-02-05T11:58:40.764Z,185
2019-02-05T11:59:51.151Z,185
2019-02-05T12:01:01.615Z,185
2019-02-05T12:02:11.782Z,180
2019-02-05T12:03:21.987Z,185
2019-02-05T12:04:31.998Z,175
2019-02-05T12:05:42.080Z,175
2019-02-05T12:06:52.074Z,175
2019-02-05T12:08:02.062Z,175
2019-02-05T12:09:12.088Z,175
2019-02-05T12:10:22.093Z,170
2019-02-05T12:11:32.241Z,175
2019-02-05T12:12:42.240Z,175
2019-02-05T12:13:52.261Z,175
2019-02-05T12:15:02.298Z,180
2019-02-05T12:16:12.303Z,185
2019-02-05T12:17:22.527Z,185
2019-02-05T12:18:32.525Z,185
2019-02-05T12:19:42.552Z,190
2019-02-05T12:20:52.579Z,190
2019-02-05T12:22:02.689Z,190
2019-02-05T12:23:12.732Z,190
2019-02-05T12:24:22.726Z,190
2019-02-05T12:25:32.756Z,190
2019-02-05T12:26:42.766Z,190
2019-02-05T12:27:52.761Z,190
2019-02-05T12:29:02.861Z,190
2019-02-05T12:30:12.832Z,190
2019-02-05T12:31:22.834Z,190
2019-02-05T12:32:32.843Z,190
2019-02-05T12:33:42.826Z,190
2019-02-05T12:34:52.882Z,185
2019-02-05T12:36:02.867Z,190
2019-02-05T12:37:12.614Z,180
2019-02-05T12:38:22.610Z,180
2019-02-05T12:39:32.578Z,175
2019-02-05T12:40:42.601Z,180
2019-02-05T12:41:52.576Z,180
2019-02-05T12:43:02.543Z,180
2019-02-05T12:44:12.625Z,180
2019-02-05T12:45:22.597Z,180
2019-02-05T12:46:32.682Z,185
2019-02-05T12:47:42.671Z,185
2019-02-05T12:48:52.646Z,190
2019-02-05T12:50:02.750Z,190
2019-02-05T12:51:12.741Z,195
2019-02-05T12:52:22.816Z,200
2019-02-05T12:53:32.792Z,200
2019-02-05T12:54:42.801Z,200
2019-02-05T12:55:52.765Z,200
2019-02-05T12:57:02.486Z,200
2019-02-05T12:58:12.503Z,200
2019-02-05T12:59:22.441Z,195
2019-02-05T13:00:32.485Z,195
2019-02-05T13:01:42.433Z,195
2019-02-05T13:02:54.528Z,190
2019-02-05T13:04:04.698Z,190
2019-02-05T13:05:14.635Z,190
2019-02-05T13:06:24.592Z,190
2019-02-05T13:07:34.536Z,185
2019-02-05T13:08:44.508Z,185
2019-02-05T13:09:54.305Z,185
2019-02-05T13:11:04.266Z,185
2019-02-05T13:12:14.217Z,185
2019-02-05T13:13:25.557Z,190
2019-02-05T13:14:35.495Z,185
2019-02-05T13:15:45.538Z,185
2019-02-05T13:16:55.498Z,180
2019-02-05T13:18:05.428Z,180
2019-02-05T13:19:15.371Z,180
2019-02-05T13:20:25.447Z,175
2019-02-05T13:21:35.585Z,175
2019-02-05T13:22:46.308Z,175
2019-02-05T13:23:56.754Z,175
2019-02-05T13:25:07.304Z,170
2019-02-05T13:26:18.331Z,170
2019-02-05T13:27:29.424Z,170
2019-02-05T13:28:40.032Z,170
2019-02-05T13:29:50.464Z,170
2019-02-05T13:31:10.488Z,170
2019-02-05T13:32:20.528Z,170
2019-02-05T13:33:30.487Z,170
2019-02-05T13:34:40.480Z,170
2019-02-05T13:35:50.428Z,170
2019-02-05T13:37:00.375Z,170
2019-02-05T13:38:10.496Z,170
2019-02-05T13:39:20.446Z,170
2019-02-05T13:40:30.407Z,170
2019-02-05T13:41:40.361Z,170
2019-02-05T13:42:50.308Z,170
2019-02-05T13:44:00.352Z,170
2019-02-05T13:45:10.310Z,170
2019-02-05T13:46:20.272Z,170
2019-02-05T13:47:32.044Z,170
2019-02-05T13:48:42.005Z,175
2019-02-05T13:49:51.749Z,175
2019-02-05T13:51:01.736Z,175
2019-02-05T13:52:11.681Z,180
2019-02-05T13:53:21.647Z,180
2019-02-05T13:54:31.639Z,185
2019-02-05T13:55:41.750Z,185
2019-02-05T13:56:51.696Z,185
2019-02-05T13:58:01.692Z,190
2019-02-05T13:59:11.668Z,185
2019-02-05T14:00:21.753Z,190
2019-02-05T14:01:31.801Z,190
2019-02-05T14:02:41.758Z,190
2019-02-05T14:03:51.705Z,185
2019-02-05T14:05:01.773Z,180
2019-02-05T14:06:11.860Z,175
2019-02-05T14:07:21.967Z,175
2019-02-05T14:08:31.919Z,175
2019-02-05T14:09:41.878Z,170
2019-02-05T14:10:51.829Z,165
2019-02-05T14:12:01.797Z,165
2019-02-05T14:13:11.881Z,155
2019-02-05T14:14:21.874Z,150
2019-02-05T14:15:31.832Z,140
2019-02-05T14:16:41.786Z,135
2019-02-05T14:17:51.747Z,135
2019-02-05T14:19:05.677Z,130
2019-02-05T14:20:16.548Z,125
2019-02-05T14:21:27.723Z,120
2019-02-05T14:22:38.655Z,120
2019-02-05T14:23:49.288Z,115
2019-02-05T14:24:59.548Z,115
2019-02-05T14:26:09.734Z,115
2019-02-05T14:27:19.892Z,115
2019-02-05T14:28:29.650Z,115
2019-02-05T14:29:39.591Z,110
2019-02-05T14:30:49.606Z,110
2019-02-05T14:31:59.555Z,110
2019-02-05T14:33:09.503Z,110
2019-02-05T14:34:19.455Z,105
2019-02-05T14:35:29.391Z,105
2019-02-05T14:36:39.442Z,100
2019-02-05T14:37:49.407Z,100
2019-02-05T14:38:59.350Z,95
2019-02-05T14:40:09.307Z,95
2019-02-05T14:41:19.256Z,95
2019-02-05T14:42:29.299Z,95
2019-02-05T14:43:39.252Z,95
2019-02-05T14:44:49.197Z,95
2019-02-05T14:45:59.176Z,95
2019-02-05T14:47:09.124Z,95
2019-02-05T14:48:19.116Z,95
2019-02-05T14:49:29.056Z,95
2019-02-05T14:50:39.020Z,90
2019-02-05T14:51:48.958Z,90
2019-02-05T14:52:58.974Z,90
2019-02-05T14:54:09.105Z,85
2019-02-05T14:55:19.149Z,85
2019-02-05T14:56:29.093Z,80
2019-02-05T14:57:39.046Z,75
2019-02-05T14:58:48.995Z,75
2019-02-05T14:59:58.935Z,75
2019-02-05T15:01:08.866Z,70
2019-02-05T15:02:18.809Z,70
2019-02-05T15:03:28.761Z,65
2019-02-05T15:04:38.718Z,65
2019-02-05T15:05:48.774Z,65
2019-02-05T15:06:58.465Z,65
2019-02-05T15:08:10.826Z,65
2019-02-05T15:09:20.764Z,60
2019-02-05T15:10:30.710Z,60
2019-02-05T15:11:40.750Z,60
2019-02-05T15:12:50.681Z,55
2019-02-05T15:14:00.616Z,55
2019-02-05T15:15:10.563Z,50
2019-02-05T15:16:20.508Z,50
2019-02-05T15:17:30.556Z,45
2019-02-05T15:18:40.600Z,45
2019-02-05T15:19:50.553Z,45
2019-02-05T15:21:00.487Z,40
2019-02-05T15:22:10.570Z,40
2019-02-05T15:23:20.315Z,40
2019-02-05T15:24:43.441Z,35
2019-02-05T15:25:53.590Z,35
2019-02-05T15:27:03.538Z,30
2019-02-05T15:28:13.609Z,30
2019-02-05T15:29:23.575Z,30
2019-02-05T15:30:33.515Z,30
2019-02-05T15:31:53.785Z,25
2019-02-05T15:33:04.079Z,25
2019-02-05T15:34:14.068Z,25
2019-02-05T15:35:24.006Z,20
2019-02-05T15:36:36.278Z,20
2019-02-05T15:37:46.225Z,20
2019-02-05T15:38:56.165Z,15
2019-02-05T15:40:06.209Z,15
2019-02-05T15:41:16.150Z,15
2019-02-05T15:42:26.094Z,15
2019-02-05T15:43:36.049Z,10
2019-02-05T15:44:46.006Z,10
2019-02-05T15:45:55.991Z,10
2019-02-05T15:47:05.945Z,10
2019-02-05T15:48:15.918Z,10
2019-02-05T15:49:27.021Z,5
2019-02-05T15:50:36.910Z,5
2019-02-05T15:51:46.951Z,5
2019-02-05T15:52:56.907Z,5
2019-02-05T15:54:06.864Z,5
2019-02-05T15:55:16.806Z,5
2019-02-05T15:56:26.760Z,0
2019-02-05T15:57:36.760Z,0
2019-02-05T15:58:46.710Z,0
2019-02-05T15:59:56.652Z,0
2019-02-05T16:01:06.640Z,0
2019-02-05T16:02:16.633Z,0
2019-02-05T16:03:26.690Z,0
2019-02-05T16:04:36.636Z,0
2019-02-05T16:05:46.327Z,0
2019-02-05T16:06:56.288Z,0
2019-02-05T16:08:06.240Z,0
2019-02-05T16:09:16.301Z,0
2019-02-05T16:10:26.258Z,0
2019-02-05T16:11:36.545Z,0
2019-02-05T16:12:47.116Z,0
2019-02-05T16:13:57.688Z,0
2019-02-05T16:15:08.421Z,0
2019-02-05T16:16:21.777Z,0
2019-02-05T16:17:32.330Z,0
2019-02-05T16:18:42.576Z,0
2019-02-05T16:19:52.681Z,0
2019-02-05T16:21:02.831Z,0
2019-02-05T16:22:12.855Z,0
2019-02-05T16:23:22.805Z,0
2019-02-05T16:24:32.750Z,0
2019-02-05T16:25:42.700Z,0
2019-02-05T16:26:52.763Z,0
2019-02-05T16:28:02.723Z,0
2019-02-05T16:29:12.672Z,0
2019-02-05T16:30:22.646Z,0
2019-02-05T16:31:35.165Z,0
2019-02-05T16:32:45.248Z,0
2019-02-05T16:33:55.193Z,0
2019-02-05T16:35:05.270Z,0
2019-02-05T16:36:15.234Z,0
2019-02-05T16:37:25.185Z,0
2019-02-05T16:38:35.270Z,0
2019-02-05T16:39:45.211Z,0
2019-02-05T16:40:55.146Z,0
2019-02-05T16:42:05.098Z,0
2019-02-05T16:43:15.112Z,0
2019-02-05T16:44:25.161Z,0
2019-02-05T16:45:35.199Z,0
2019-02-05T16:46:45.245Z,0
2019-02-05T16:47:55.213Z,0
2019-02-05T16:49:05.167Z,0